Terminal Aerodrome Forecast
Issued by NWS

Home | Current Version | Previous Version | Graphics & Text | Print | Product List | Glossary On
Versions: 1 2 3 4 5 6 7 8 9 10 11 12 13 14 15 16 17
134
FTUS43 KABR 140535
TAFPIR
TAF
KPIR 140535Z 1406/1506 11009KT P6SM SKC
     FM141100 13008KT P6SM VCSH BKN110
     FM141300 13006KT P6SM -SHRA OVC070
     FM141700 01010G19KT 3SM -SHRA OVC040
     FM142100 33018G30KT P6SM OVC030
     FM150300 31009KT P6SM FEW150=

USA.gov is the U.S. government's official web portal to all federal, state and local government web resources and services.